Aviation Digital Data Service (ADDS)

Output produced by METARs form (1847 UTC 30 July 2016)
found at http://www.aviationweather.gov/adds/metars/
 
KMDT 301835Z 11009KT 10SM FEW020 BKN040 OVC080 24/23 A2996 RMK AO2 RAE17 TSB08E35 TS MOV NE P0009 T02390228
KMDT 301810Z COR 15004KT 9SM -TSRA FEW021CB BKN060 OVC075 24/23 A2995 RMK AO2 TSB08 OCNL LTGICCG E TS E MOV NE P0009 T02440233
KMDT 301802Z 20006G17KT 3SM R13/3000VP6000FT -RA BR FEW019 BKN049 OVC080 24/23 A2996 RMK AO2 P0009 T02440228
KMDT 301756Z 20007G21KT 1/2SM R13/3000VP6000FT +RA FG FEW017CB BKN050 OVC095 24/24 A2996 RMK AO2 RAB32 SLP144 CB OHD AND VC E MOV NE P0019 60024 T02440239 10283 20244 56003
KMDT 301750Z 21013G21KT 3/4SM R13/4500VP6000FT +RA BR FEW017 BKN049 OVC095 26/24 A2997 RMK AO2 RAB32 P0008
KMDT 301744Z VRB04KT 3SM -RA BR FEW029 BKN080 OVC095 27/24 A2996 RMK AO2 RAB32 P0003 T02670244
KMDT 301656Z COR 04005KT 9SM FEW020CB SCT031 BKN039 28/24 A2996 RMK AO2 CB N MOV NE RAB22E52 SLP143 P0005 T02780244
KMDT 301556Z 11005KT 5SM HZ FEW040 SCT100 OVC200 28/24 A2997 RMK AO2 RAE38 SLP147 CB DSNT S-SW P0000 T02780244
KMDT 301456Z 12004KT 5SM -RA FEW014 FEW060 BKN100 OVC250 27/24 A2997 RMK AO2 RAB53 SLP148 PCPN VRY LGT P0000 60000 T02670239 58000
KMDT 301356Z 15004KT 6SM HZ SCT100 BKN150 OVC200 27/24 A2998 RMK AO2 SLP149 VCSH W T02720239
KMDT 301256Z 13003KT 7SM SCT140 BKN200 26/23 A2998 RMK AO2 SLP149 T02560228
KMDT 301156Z 09003KT 10SM SCT140 SCT170 BKN250 24/21 A2997 RMK AO2 SLP148 T02390211 10250 20228 51012
KMDT 301056Z 00000KT 10SM BKN140 BKN250 23/21 A2997 RMK AO2 SLP146 T02330211
KMDT 300956Z 03003KT 10SM SCT250 23/22 A2994 RMK AO2 SLP138 T02280217
KMDT 300856Z 00000KT 10SM SCT250 23/22 A2994 RMK AO2 SLP136 T02280217 55000
KMDT 300756Z 03003KT 10SM BKN250 24/21 A2993 RMK AO2 SLP133 T02390206
KMDT 300656Z 00000KT 10SM FEW070 SCT250 24/21 A2994 RMK AO2 SLP136 T02390206
KMDT 300556Z 02004KT 10SM FEW120 SCT250 25/21 A2994 RMK AO2 SLP136 60000 T02500206 10289 20250 51007
KMDT 300456Z VRB03KT 10SM FEW065 SCT120 SCT250 26/21 A2994 RMK AO2 SLP135 T02610206 403280217
KMDT 300356Z 04005KT 10SM FEW120 SCT250 27/22 A2993 RMK AO2 SLP133 T02670222
KMDT 300256Z 22005KT 10SM SCT120 SCT250 28/22 A2992 RMK AO2 SLP129 60000 T02780222 53013
KMDT 300156Z 23008KT 10SM FEW120 SCT250 28/22 A2990 RMK AO2 SLP125 T02830217
KMDT 300056Z 00000KT 10SM FEW070 FEW120 SCT250 27/23 A2988 RMK AO2 SLP118 T02720228
KMDT 292356Z VRB03KT 10SM FEW070 FEW120 SCT250 29/23 A2988 RMK AO2 SLP116 T02890233 10328 20289 53009
KMDT 292256Z 19003KT 10SM FEW060 FEW120 SCT250 31/23 A2986 RMK AO2 SLP110 T03110233
KMDT 292156Z 17003KT 10SM SCT060 SCT120 32/21 A2986 RMK AO2 SLP109 T03220211
KMDT 292056Z 00000KT 10SM SCT055 SCT100 32/21 A2985 RMK AO2 SLP106 T03220206 58003
KMDT 291956Z 00000KT 10SM SCT050 32/21 A2985 RMK AO2 SLP107 T03220211
KMDT 291856Z 00000KT 10SM SCT045 30/21 A2986 RMK AO2 SLP111 T03000206
KMDT 291756Z 35007KT 10SM SCT037 BKN046 31/21 A2986 RMK AO2 SLP110 T03060211 10306 20228 55003
KMDT 291656Z 06005KT 10SM BKN037 29/22 A2986 RMK AO2 SLP109 T02940217
KMDT 291556Z 34007KT 300V010 10SM SCT027 BKN040 28/22 A2987 RMK AO2 SLP112 T02830217
KMDT 291456Z 36006KT 10SM SCT040 27/22 A2987 RMK AO2 SLP113 T02720217 50001
KMDT 291356Z 30007KT 10SM CLR 26/22 A2987 RMK AO2 SLP114 T02610217
KMDT 291256Z 29007KT 10SM SCT060 24/22 A2987 RMK AO2 SLP113 T02440217
KMDT 291156Z 31006KT 9SM FEW007 SCT090 23/22 A2987 RMK AO2 SLP113 60012 70028 T02280222 10233 20217 51017
KMDT 291056Z 32004KT 6SM BR FEW007 SCT025 23/22 A2986 RMK AO2 SLP110 T02280222
KMDT 291048Z 32004KT 6SM BR FEW007 SCT025 22/22 A2986 RMK AO2 T02220217
KMDT 290956Z 31004KT 8SM SCT070 BKN160 OVC250 22/22 A2984 RMK AO2 SLP102 T02220217
KMDT 290856Z 31004KT 9SM FEW070 BKN170 OVC250 22/22 A2982 RMK AO2 RAE30 SLP095 P0001 60012 T02220217 56016
KMDT 290756Z 00000KT 6SM -RA BR OVC130 23/22 A2982 RMK AO2 SLP096 P0006 T02280222
KMDT 290656Z 36005KT 4SM RA BR BKN110 OVC130 23/23 A2985 RMK AO2 SLP105 P0005 T02330233